createdAt,value
2022-10-11T00:00:25.381Z,100.00
2022-10-11T00:04:26.927Z,100.00
2022-10-11T00:08:28.476Z,100.00
2022-10-11T00:12:30.050Z,100.00
2022-10-11T00:16:31.747Z,100.00
2022-10-11T00:20:33.352Z,100.00
2022-10-11T00:24:35.573Z,100.00
2022-10-11T00:28:38.248Z,100.00
2022-10-11T00:32:40.053Z,100.00
2022-10-11T00:36:41.598Z,100.00
2022-10-11T00:40:43.662Z,100.00
2022-10-11T00:44:49.828Z,100.00
2022-10-11T00:48:57.630Z,100.00
2022-10-11T00:53:05.496Z,100.00
2022-10-11T00:57:10.214Z,100.00
2022-10-11T01:01:12.105Z,100.00
2022-10-11T01:05:32.207Z,100.00
2022-10-11T01:09:34.101Z,100.00
2022-10-11T01:13:40.645Z,100.00
2022-10-11T01:18:06.636Z,100.00
2022-10-11T01:22:35.584Z,100.00
2022-10-11T01:27:04.748Z,100.00
2022-10-11T01:31:19.467Z,100.00
2022-10-11T01:35:28.637Z,100.00
2022-10-11T01:39:39.095Z,100.00
2022-10-11T01:43:42.084Z,100.00
2022-10-11T01:47:45.760Z,100.00
2022-10-11T01:51:52.312Z,100.00
2022-10-11T01:56:24.797Z,100.00
2022-10-11T02:00:39.458Z,100.00
2022-10-11T02:04:53.134Z,100.00
2022-10-11T02:09:16.592Z,100.00
2022-10-11T02:13:33.882Z,100.00
2022-10-11T02:17:42.846Z,100.00
2022-10-11T02:21:48.719Z,100.00
2022-10-11T02:25:52.500Z,100.00
2022-10-11T02:29:56.116Z,100.00
2022-10-11T02:34:05.705Z,100.00
2022-10-11T02:38:22.113Z,100.00
2022-10-11T02:42:46.927Z,100.00
2022-10-11T02:46:50.212Z,100.00
2022-10-11T02:50:53.731Z,100.00
2022-10-11T02:54:55.365Z,100.00
2022-10-11T02:58:56.979Z,100.00
2022-10-11T03:02:58.631Z,100.00
2022-10-11T03:07:00.264Z,100.00
2022-10-11T03:11:01.825Z,100.00
2022-10-11T03:15:04.181Z,100.00
2022-10-11T03:19:05.854Z,100.00
2022-10-11T03:23:07.381Z,100.00
2022-10-11T03:27:09.047Z,100.00
2022-10-11T03:31:10.785Z,100.00
2022-10-11T03:35:12.580Z,100.00
2022-10-11T03:39:14.304Z,100.00
2022-10-11T03:43:16.703Z,100.00
2022-10-11T03:48:14.136Z,100.00
2022-10-11T03:51:52.946Z,100.00
2022-10-11T03:56:08.143Z,100.00
2022-10-11T04:00:10.483Z,100.00
2022-10-11T04:04:12.116Z,100.00
2022-10-11T04:08:13.832Z,100.00
2022-10-11T04:12:15.566Z,100.00
2022-10-11T04:16:21.023Z,100.00
2022-10-11T04:20:22.637Z,100.00
2022-10-11T04:24:24.213Z,100.00
2022-10-11T04:28:25.949Z,100.00
2022-10-11T04:32:27.895Z,100.00
2022-10-11T04:36:30.220Z,100.00
2022-10-11T04:40:32.750Z,100.00
2022-10-11T04:44:34.322Z,100.00
2022-10-11T04:48:36.285Z,100.00
2022-10-11T04:52:50.409Z,100.00
2022-10-11T04:56:51.996Z,100.00
2022-10-11T05:00:54.076Z,100.00
2022-10-11T05:04:57.756Z,100.00
2022-10-11T05:09:00.388Z,100.00
2022-10-11T05:13:01.956Z,100.00
2022-10-11T05:17:03.627Z,100.00
2022-10-11T05:21:08.129Z,100.00
2022-10-11T05:25:09.802Z,100.00
2022-10-11T05:29:11.549Z,100.00
2022-10-11T05:33:13.169Z,100.00
2022-10-11T05:37:14.856Z,100.00
2022-10-11T05:41:16.804Z,100.00
2022-10-11T05:45:18.736Z,100.00
2022-10-11T05:49:20.349Z,100.00
2022-10-11T05:53:22.255Z,100.00
2022-10-11T05:57:23.868Z,100.00
2022-10-11T06:01:26.958Z,100.00
2022-10-11T06:05:28.674Z,100.00
2022-10-11T06:09:32.886Z,100.00
2022-10-11T06:13:35.859Z,100.00
2022-10-11T06:17:37.768Z,100.00
2022-10-11T06:21:39.538Z,100.00
2022-10-11T06:25:41.101Z,100.00
2022-10-11T06:29:42.796Z,100.00
2022-10-11T06:33:44.359Z,100.00
2022-10-11T06:37:45.930Z,100.00
2022-10-11T06:41:47.538Z,100.00
2022-10-11T06:45:49.279Z,100.00
2022-10-11T06:49:50.865Z,100.00
2022-10-11T06:53:55.653Z,100.00
2022-10-11T06:57:57.228Z,100.00
2022-10-11T07:01:58.847Z,100.00
2022-10-11T07:06:05.778Z,100.00
2022-10-11T07:10:08.096Z,100.00
2022-10-11T07:14:09.933Z,100.00
2022-10-11T07:18:13.389Z,100.00
2022-10-11T07:22:16.164Z,100.00
2022-10-11T07:26:18.879Z,100.00
2022-10-11T07:30:21.828Z,100.00
2022-10-11T07:34:23.338Z,100.00
2022-10-11T07:38:25.103Z,100.00
2022-10-11T07:42:26.919Z,100.00
2022-10-11T07:46:28.632Z,100.00
2022-10-11T07:50:30.247Z,100.00
2022-10-11T07:54:32.933Z,100.00
2022-10-11T07:58:34.480Z,100.00
2022-10-11T08:02:36.139Z,100.00
2022-10-11T08:06:38.025Z,100.00
2022-10-11T08:10:40.422Z,100.00
2022-10-11T08:14:42.180Z,100.00
2022-10-11T08:18:43.947Z,100.00
2022-10-11T08:22:45.544Z,100.00
2022-10-11T08:26:47.982Z,100.00
2022-10-11T08:31:17.801Z,100.00
2022-10-11T08:35:19.438Z,100.00
2022-10-11T08:39:20.971Z,100.00
2022-10-11T08:43:47.168Z,100.00
2022-10-11T08:47:48.827Z,100.00
2022-10-11T08:52:04.291Z,100.00
2022-10-11T08:56:07.124Z,100.00
2022-10-11T09:00:22.357Z,100.00
2022-10-11T09:04:27.360Z,100.00
2022-10-11T09:09:12.981Z,100.00
2022-10-11T09:13:20.389Z,100.00
2022-10-11T09:17:30.995Z,100.00
2022-10-11T09:21:38.515Z,100.00
2022-10-11T09:26:27.139Z,100.00
2022-10-11T09:30:28.788Z,100.00
2022-10-11T09:34:36.778Z,100.00
2022-10-11T09:39:18.236Z,100.00
2022-10-11T09:43:20.290Z,100.00
2022-10-11T09:47:28.073Z,100.00
2022-10-11T09:51:30.741Z,100.00
2022-10-11T09:55:52.379Z,100.00
2022-10-11T10:00:23.336Z,95.92
2022-10-11T10:05:08.638Z,93.29
2022-10-11T10:09:27.945Z,93.46
2022-10-11T10:13:56.073Z,89.12
2022-10-11T10:17:59.129Z,89.57
2022-10-11T10:22:04.723Z,87.04
2022-10-11T10:26:30.220Z,84.45
2022-10-11T10:30:45.955Z,84.08
2022-10-11T10:35:09.339Z,81.90
2022-10-11T10:39:53.912Z,80.46
2022-10-11T10:44:02.155Z,81.78
2022-10-11T10:49:11.656Z,77.36
2022-10-11T10:53:30.277Z,75.69
2022-10-11T10:58:12.879Z,76.61
2022-10-11T11:06:51.186Z,74.80
2022-10-11T11:11:05.213Z,74.73
2022-10-11T11:15:32.507Z,73.44
2022-10-11T11:20:13.838Z,70.95
2022-10-11T11:24:24.259Z,68.39
2022-10-11T11:28:50.273Z,69.57
2022-10-11T11:33:10.783Z,70.27
2022-10-11T11:37:40.619Z,65.03
2022-10-11T11:41:52.243Z,65.82
2022-10-11T11:45:59.353Z,66.88
2022-10-11T11:50:15.206Z,64.55
2022-10-11T11:54:38.177Z,62.40
2022-10-11T11:58:48.795Z,58.04
2022-10-11T12:03:13.512Z,58.12
2022-10-11T12:07:18.376Z,57.85
2022-10-11T12:11:25.458Z,54.98
2022-10-11T12:15:27.460Z,51.76
2022-10-11T12:19:29.183Z,54.91
2022-10-11T12:23:30.803Z,54.04
2022-10-11T12:27:37.287Z,52.25
2022-10-11T12:31:43.739Z,52.52
2022-10-11T12:35:53.857Z,48.72
2022-10-11T12:39:58.455Z,51.64
2022-10-11T12:44:22.878Z,48.02
2022-10-11T12:48:46.144Z,47.59
2022-10-11T12:53:03.398Z,47.97
2022-10-11T12:57:46.166Z,48.61
2022-10-11T13:01:52.600Z,48.98
2022-10-11T13:06:01.472Z,49.75
2022-10-11T13:10:05.524Z,51.29
2022-10-11T13:14:17.596Z,50.71
2022-10-11T13:18:24.612Z,52.81
2022-10-11T13:22:26.755Z,53.54
2022-10-11T13:26:30.613Z,53.81
2022-10-11T13:30:34.488Z,53.70
2022-10-11T13:34:39.409Z,55.11
2022-10-11T13:38:41.007Z,54.87
2022-10-11T13:42:43.552Z,57.06
2022-10-11T13:46:45.500Z,57.77
2022-10-11T13:51:10.944Z,57.92
2022-10-11T13:55:35.662Z,57.15
2022-10-11T13:59:42.391Z,58.31
2022-10-11T14:03:47.862Z,59.51
2022-10-11T14:07:49.591Z,60.20
2022-10-11T14:11:51.309Z,59.26
2022-10-11T14:16:06.044Z,60.06
2022-10-11T14:20:19.921Z,59.45
2022-10-11T14:24:21.988Z,60.03
2022-10-11T14:28:23.702Z,59.88
2022-10-11T14:32:35.231Z,60.63
2022-10-11T14:36:36.897Z,61.42
2022-10-11T14:40:38.797Z,61.20
2022-10-11T14:44:40.892Z,60.86
2022-10-11T14:48:54.930Z,61.48
2022-10-11T14:52:58.249Z,61.97
2022-10-11T14:57:02.868Z,62.22
2022-10-11T15:01:04.805Z,62.70
2022-10-11T15:05:06.978Z,63.39
2022-10-11T15:09:08.977Z,62.47
2022-10-11T15:13:10.604Z,62.82
2022-10-11T15:17:12.939Z,62.55
2022-10-11T15:21:14.724Z,62.40
2022-10-11T15:25:16.849Z,62.46
2022-10-11T15:29:32.909Z,63.96
2022-10-11T15:33:34.540Z,64.60
2022-10-11T15:37:37.843Z,66.23
2022-10-11T15:41:39.476Z,68.50
2022-10-11T15:45:41.236Z,70.21
2022-10-11T15:49:42.880Z,72.30
2022-10-11T15:53:44.846Z,74.09
2022-10-11T15:57:46.505Z,75.10
2022-10-11T16:01:48.170Z,75.81
2022-10-11T16:05:52.339Z,76.50
2022-10-11T16:09:54.000Z,77.66
2022-10-11T16:13:55.617Z,78.49
2022-10-11T16:17:57.375Z,78.80
2022-10-11T16:21:59.010Z,79.24
2022-10-11T16:26:07.387Z,80.06
2022-10-11T16:30:11.958Z,81.12
2022-10-11T16:34:14.988Z,82.13
2022-10-11T16:38:17.048Z,82.70
2022-10-11T16:42:18.623Z,83.56
2022-10-11T16:46:21.465Z,84.79
2022-10-11T16:50:24.535Z,85.92
2022-10-11T16:54:30.563Z,86.77
2022-10-11T16:58:35.165Z,87.34
2022-10-11T17:02:36.896Z,88.19
2022-10-11T17:06:40.191Z,88.51
2022-10-11T17:10:44.464Z,88.57
2022-10-11T17:14:46.514Z,89.00
2022-10-11T17:18:49.080Z,89.95
2022-10-11T17:22:51.540Z,90.29
2022-10-11T17:26:54.403Z,90.70
2022-10-11T17:30:57.650Z,91.28
2022-10-11T17:35:01.995Z,91.54
2022-10-11T17:39:08.843Z,90.30
2022-10-11T17:43:12.859Z,89.63
2022-10-11T17:47:15.086Z,89.57
2022-10-11T17:51:18.667Z,89.56
2022-10-11T17:55:20.295Z,89.46
2022-10-11T17:59:22.299Z,89.52
2022-10-11T18:03:25.843Z,88.72
2022-10-11T18:07:27.633Z,88.58
2022-10-11T18:11:33.825Z,88.33
2022-10-11T18:15:35.583Z,88.64
2022-10-11T18:19:37.224Z,89.58
2022-10-11T18:23:40.827Z,89.66
2022-10-11T18:27:42.455Z,89.73
2022-10-11T18:31:44.264Z,89.93
2022-10-11T18:35:45.811Z,90.40
2022-10-11T18:39:47.443Z,91.52
2022-10-11T18:43:56.500Z,91.70
2022-10-11T18:47:58.229Z,92.96
2022-10-11T18:51:59.821Z,92.47
2022-10-11T18:56:03.649Z,92.46
2022-10-11T19:00:16.809Z,91.68
2022-10-11T19:04:25.810Z,92.43
2022-10-11T19:08:27.936Z,92.49
2022-10-11T19:12:29.623Z,92.83
2022-10-11T19:16:31.402Z,92.97
2022-10-11T19:20:35.753Z,93.63
2022-10-11T19:24:37.361Z,93.74
2022-10-11T19:28:39.062Z,94.72
2022-10-11T19:32:40.688Z,95.61
2022-10-11T19:36:43.148Z,95.77
2022-10-11T19:40:44.778Z,96.07
2022-10-11T19:44:46.465Z,96.92
2022-10-11T19:48:49.687Z,97.67
2022-10-11T19:52:51.454Z,96.34
2022-10-11T19:56:53.119Z,96.73
2022-10-11T20:01:06.531Z,97.25
2022-10-11T20:05:08.373Z,96.98
2022-10-11T20:09:28.589Z,97.47
2022-10-11T20:13:34.866Z,98.07
2022-10-11T20:17:48.803Z,98.54
2022-10-11T20:21:50.530Z,98.37
2022-10-11T20:25:58.945Z,98.62
2022-10-11T20:30:01.790Z,98.38
2022-10-11T20:34:07.590Z,99.29
2022-10-11T20:38:09.127Z,100.00
2022-10-11T20:42:10.781Z,100.00
2022-10-11T20:46:15.583Z,100.00
2022-10-11T20:50:22.128Z,100.00
2022-10-11T20:54:24.716Z,100.00
2022-10-11T20:58:26.660Z,100.00
2022-10-11T21:02:28.239Z,100.00
2022-10-11T21:06:31.372Z,100.00
2022-10-11T21:10:33.071Z,100.00
2022-10-11T21:14:34.694Z,100.00
2022-10-11T21:18:36.357Z,100.00
2022-10-11T21:22:38.075Z,100.00
2022-10-11T21:26:39.637Z,100.00
2022-10-11T21:30:41.200Z,100.00
2022-10-11T21:34:43.766Z,100.00
2022-10-11T21:38:46.105Z,100.00
2022-10-11T21:42:47.755Z,100.00
2022-10-11T21:51:16.041Z,100.00
2022-10-11T21:55:17.604Z,100.00
2022-10-11T21:59:19.234Z,100.00
2022-10-11T22:03:20.776Z,100.00
2022-10-11T22:07:22.308Z,100.00
2022-10-11T22:11:24.228Z,100.00
2022-10-11T22:15:25.781Z,100.00
2022-10-11T22:19:27.544Z,100.00
2022-10-11T22:23:29.117Z,100.00
2022-10-11T22:27:30.688Z,100.00
2022-10-11T22:31:32.382Z,100.00
2022-10-11T22:35:37.722Z,100.00
2022-10-11T22:39:39.402Z,100.00
2022-10-11T22:43:41.087Z,100.00
2022-10-11T22:47:42.626Z,100.00
2022-10-11T22:51:44.552Z,100.00
2022-10-11T22:55:46.679Z,100.00
2022-10-11T22:59:48.338Z,100.00
2022-10-11T23:03:52.966Z,100.00
2022-10-11T23:07:54.839Z,100.00
2022-10-11T23:11:56.470Z,100.00
2022-10-11T23:15:58.105Z,100.00
2022-10-11T23:19:59.795Z,100.00
2022-10-11T23:24:01.505Z,100.00
2022-10-11T23:28:03.152Z,100.00
2022-10-11T23:32:04.881Z,100.00
2022-10-11T23:36:13.045Z,100.00
2022-10-11T23:40:16.726Z,100.00
2022-10-11T23:44:19.740Z,100.00
2022-10-11T23:48:22.749Z,100.00
2022-10-11T23:52:24.233Z,100.00
2022-10-11T23:56:25.851Z,100.00
